createdAt,value
2022-11-07T00:01:45.815Z,45.80
2022-11-07T00:04:12.936Z,48.20
2022-11-07T00:06:39.851Z,45.78
2022-11-07T00:09:06.796Z,44.30
2022-11-07T00:11:33.893Z,45.10
2022-11-07T00:14:00.848Z,48.20
2022-11-07T00:16:28.873Z,46.03
2022-11-07T00:18:56.141Z,45.22
2022-11-07T00:21:23.051Z,46.70
2022-11-07T00:23:49.929Z,46.10
2022-11-07T00:26:17.057Z,49.35
2022-11-07T00:28:44.544Z,45.03
2022-11-07T00:31:12.935Z,43.58
2022-11-07T00:33:40.853Z,38.92
2022-11-07T00:36:08.719Z,36.72
2022-11-07T00:38:35.621Z,35.13
2022-11-07T00:41:05.244Z,36.50
2022-11-07T00:43:32.460Z,36.58
2022-11-07T00:46:01.592Z,33.38
2022-11-07T00:48:29.170Z,33.05
2022-11-07T00:50:56.117Z,32.33
2022-11-07T00:53:23.333Z,31.48
2022-11-07T00:55:50.416Z,34.85
2022-11-07T00:58:17.569Z,35.05
2022-11-07T01:00:44.396Z,38.67
2022-11-07T01:03:29.983Z,42.15
2022-11-07T01:06:01.576Z,41.20
2022-11-07T01:08:28.764Z,39.40
2022-11-07T01:10:55.742Z,33.17
2022-11-07T01:13:22.983Z,30.90
2022-11-07T01:15:50.397Z,33.22
2022-11-07T01:18:17.817Z,33.15
2022-11-07T01:20:44.687Z,30.25
2022-11-07T01:23:11.963Z,29.25
2022-11-07T01:25:39.646Z,30.95
2022-11-07T01:28:07.822Z,30.33
2022-11-07T01:30:39.173Z,30.35
2022-11-07T01:33:06.121Z,35.28
2022-11-07T01:35:33.780Z,34.53
2022-11-07T01:38:00.895Z,35.15
2022-11-07T01:40:27.847Z,33.90
2022-11-07T01:42:54.812Z,33.58
2022-11-07T01:45:28.226Z,35.60
2022-11-07T01:47:57.171Z,36.28
2022-11-07T01:50:25.006Z,32.88
2022-11-07T01:52:53.237Z,32.15
2022-11-07T01:55:32.450Z,33.42
2022-11-07T01:58:10.467Z,33.13
2022-11-07T02:00:37.434Z,32.92
2022-11-07T02:03:10.065Z,32.38
2022-11-07T02:05:50.677Z,30.73
2022-11-07T02:08:17.993Z,35.38
2022-11-07T02:10:44.852Z,33.35
2022-11-07T02:13:17.703Z,32.78
2022-11-07T02:15:44.849Z,32.45
2022-11-07T02:18:11.729Z,34.40
2022-11-07T02:20:38.585Z,33.78
2022-11-07T02:23:13.807Z,34.72
2022-11-07T02:25:41.057Z,35.05
2022-11-07T02:28:09.751Z,35.42
2022-11-07T02:30:37.008Z,38.85
2022-11-07T02:33:04.121Z,40.47
2022-11-07T02:35:45.170Z,42.08
2022-11-07T02:40:48.130Z,38.50
2022-11-07T02:43:16.362Z,40.60
2022-11-07T02:45:45.196Z,38.65
2022-11-07T02:48:13.552Z,37.77
2022-11-07T02:50:41.524Z,37.80
2022-11-07T02:53:10.449Z,34.67
2022-11-07T02:55:37.640Z,34.97
2022-11-07T02:58:05.189Z,34.20
2022-11-07T03:00:32.057Z,33.05
2022-11-07T03:02:59.247Z,32.25
2022-11-07T03:05:26.654Z,32.83
2022-11-07T03:07:53.521Z,30.95
2022-11-07T03:10:20.612Z,30.20
2022-11-07T03:12:50.220Z,33.92
2022-11-07T03:15:19.777Z,31.83
2022-11-07T03:17:49.738Z,32.07
2022-11-07T03:20:16.601Z,30.73
2022-11-07T03:22:43.461Z,32.60
2022-11-07T03:25:10.560Z,31.75
2022-11-07T03:27:47.034Z,37.45
2022-11-07T03:30:14.257Z,36.30
2022-11-07T03:32:41.094Z,30.75
2022-11-07T03:35:08.325Z,30.02
2022-11-07T03:37:35.420Z,31.77
2022-11-07T03:40:02.297Z,31.70
2022-11-07T03:42:29.168Z,30.33
2022-11-07T03:44:56.303Z,29.67
2022-11-07T03:47:23.149Z,29.12
2022-11-07T03:49:50.017Z,28.33
2022-11-07T03:52:17.144Z,27.55
2022-11-07T03:54:43.996Z,26.87
2022-11-07T03:57:10.836Z,26.70
2022-11-07T03:59:37.964Z,23.45
2022-11-07T04:02:04.905Z,24.58
2022-11-07T04:04:32.127Z,21.48
2022-11-07T04:06:58.988Z,22.98
2022-11-07T04:09:25.837Z,24.05
2022-11-07T04:12:22.237Z,22.02
2022-11-07T04:15:07.596Z,22.55
2022-11-07T04:17:34.691Z,21.80
2022-11-07T04:20:01.520Z,23.02
2022-11-07T04:22:28.388Z,25.50
2022-11-07T04:24:55.508Z,24.90
2022-11-07T04:27:41.311Z,25.27
2022-11-07T04:30:29.962Z,23.90
2022-11-07T04:32:58.740Z,22.65
2022-11-07T04:35:28.497Z,22.00
2022-11-07T04:37:55.340Z,22.05
2022-11-07T04:40:22.180Z,21.02
2022-11-07T04:42:52.067Z,21.95
2022-11-07T04:45:21.786Z,20.27
2022-11-07T04:47:51.781Z,22.87
2022-11-07T04:50:21.692Z,21.55
2022-11-07T04:52:51.403Z,21.08
2022-11-07T04:55:24.537Z,24.33
2022-11-07T04:57:51.743Z,26.10
2022-11-07T05:00:22.057Z,28.48
2022-11-07T05:02:51.849Z,28.83
2022-11-07T05:05:21.933Z,32.55
2022-11-07T05:07:51.576Z,27.50
2022-11-07T05:10:24.339Z,28.40
2022-11-07T05:12:51.356Z,27.92
2022-11-07T05:15:21.665Z,27.58
2022-11-07T05:17:51.355Z,26.95
2022-11-07T05:20:31.045Z,24.02
2022-11-07T05:23:18.432Z,25.00
2022-11-07T05:25:50.656Z,28.12
2022-11-07T05:28:31.234Z,29.77
2022-11-07T05:31:02.821Z,30.10
2022-11-07T05:33:29.765Z,30.88
2022-11-07T05:35:56.959Z,30.67
2022-11-07T05:38:24.057Z,31.02
2022-11-07T05:40:50.898Z,29.58
2022-11-07T05:43:18.177Z,31.33
2022-11-07T05:45:45.468Z,30.55
2022-11-07T05:48:13.489Z,30.55
2022-11-07T05:50:41.058Z,32.35
2022-11-07T05:53:08.454Z,34.42
2022-11-07T05:55:35.336Z,35.97
2022-11-07T05:58:08.108Z,33.90
2022-11-07T06:00:35.250Z,33.53
2022-11-07T06:03:02.472Z,30.35
2022-11-07T06:05:29.444Z,32.15
2022-11-07T06:07:56.397Z,30.23
2022-11-07T06:10:24.197Z,30.58
2022-11-07T06:13:01.918Z,30.85
2022-11-07T06:15:30.407Z,31.30
2022-11-07T06:18:00.652Z,30.75
2022-11-07T06:20:28.399Z,33.63
2022-11-07T06:22:59.789Z,33.22
2022-11-07T06:25:27.682Z,35.70
2022-11-07T06:27:59.637Z,34.35
2022-11-07T06:30:26.929Z,33.15
2022-11-07T06:32:54.132Z,33.08
2022-11-07T06:35:21.120Z,32.55
2022-11-07T06:37:51.336Z,29.73
2022-11-07T06:40:21.228Z,30.10
2022-11-07T06:42:51.429Z,30.10
2022-11-07T06:45:18.285Z,30.42
2022-11-07T06:47:45.132Z,27.80
2022-11-07T06:50:12.244Z,27.87
2022-11-07T06:52:39.122Z,27.62
2022-11-07T06:55:06.370Z,24.20
2022-11-07T06:57:34.949Z,23.35
2022-11-07T07:00:05.370Z,21.58
2022-11-07T07:02:56.685Z,21.17
2022-11-07T07:05:21.225Z,20.55
2022-11-07T07:07:51.114Z,21.87
2022-11-07T07:10:21.080Z,20.77
2022-11-07T07:12:51.249Z,21.45
2022-11-07T07:15:21.348Z,20.95
2022-11-07T07:17:50.578Z,22.23
2022-11-07T07:20:20.554Z,20.98
2022-11-07T07:22:56.998Z,20.23
2022-11-07T07:25:26.427Z,19.70
2022-11-07T07:27:53.300Z,18.45
2022-11-07T07:30:20.161Z,18.73
2022-11-07T07:32:47.268Z,17.83
2022-11-07T07:35:14.124Z,18.45
2022-11-07T07:37:40.960Z,17.33
2022-11-07T07:40:08.747Z,16.60
2022-11-07T07:42:41.388Z,16.73
2022-11-07T07:45:09.878Z,15.70
2022-11-07T07:47:37.444Z,18.00
2022-11-07T07:50:06.136Z,16.30
2022-11-07T07:52:33.249Z,16.58
2022-11-07T07:55:00.155Z,16.95
2022-11-07T07:57:26.978Z,16.48
2022-11-07T07:59:54.125Z,16.83
2022-11-07T08:02:21.137Z,15.82
2022-11-07T08:04:48.243Z,16.42
2022-11-07T08:07:15.153Z,15.80
2022-11-07T08:09:41.997Z,15.45
2022-11-07T08:12:09.143Z,16.73
2022-11-07T08:14:36.173Z,15.45
2022-11-07T08:17:03.649Z,16.77
2022-11-07T08:19:30.790Z,15.98
2022-11-07T08:21:58.954Z,14.98
2022-11-07T08:24:25.772Z,14.80
2022-11-07T08:26:52.877Z,14.07
2022-11-07T08:29:19.707Z,14.25
2022-11-07T08:31:46.578Z,14.30
2022-11-07T08:34:13.811Z,14.48
2022-11-07T08:36:41.330Z,14.73
2022-11-07T08:39:08.178Z,14.07
2022-11-07T08:41:35.269Z,13.38
2022-11-07T08:44:02.130Z,13.32
2022-11-07T08:46:29.055Z,13.35
2022-11-07T08:48:56.140Z,14.02
2022-11-07T08:51:23.051Z,13.30
2022-11-07T08:53:49.892Z,13.15
2022-11-07T08:56:17.024Z,12.95
2022-11-07T08:58:44.632Z,13.62
2022-11-07T09:01:11.573Z,14.43
2022-11-07T09:03:46.073Z,13.05
2022-11-07T09:06:16.260Z,13.62
2022-11-07T09:08:43.577Z,12.85
2022-11-07T09:11:10.816Z,12.60
2022-11-07T09:13:37.915Z,13.23
2022-11-07T09:16:05.288Z,13.13
2022-11-07T09:18:32.374Z,13.07
2022-11-07T09:20:59.324Z,13.55
2022-11-07T09:23:26.720Z,14.95
2022-11-07T09:25:53.579Z,15.73
2022-11-07T09:28:20.430Z,14.48
2022-11-07T09:30:47.545Z,16.20
2022-11-07T09:33:14.601Z,14.70
2022-11-07T09:35:41.681Z,13.88
2022-11-07T09:38:08.798Z,13.40
2022-11-07T09:40:43.849Z,13.50
2022-11-07T09:43:24.246Z,13.32
2022-11-07T09:45:55.259Z,12.15
2022-11-07T09:48:24.309Z,12.77
2022-11-07T09:50:51.721Z,12.88
2022-11-07T09:53:28.673Z,13.40
2022-11-07T09:55:58.596Z,12.80
2022-11-07T09:58:38.153Z,12.67
2022-11-07T10:01:07.454Z,12.60
2022-11-07T10:03:36.441Z,12.13
2022-11-07T10:06:16.773Z,13.40
2022-11-07T10:11:30.451Z,12.40
2022-11-07T10:14:31.464Z,12.55
2022-11-07T10:17:07.249Z,12.98
2022-11-07T10:19:41.447Z,11.68
2022-11-07T10:22:45.669Z,12.57
2022-11-07T10:25:29.692Z,11.48
2022-11-07T10:28:19.749Z,10.50
2022-11-07T10:30:52.089Z,11.18
2022-11-07T10:34:00.186Z,11.05
2022-11-07T10:36:32.121Z,11.50
2022-11-07T10:39:01.623Z,10.48
2022-11-07T10:41:31.668Z,10.93
2022-11-07T10:44:02.975Z,10.63
2022-11-07T10:46:47.797Z,11.75
2022-11-07T10:49:24.289Z,10.90
2022-11-07T10:51:51.687Z,12.20
2022-11-07T10:54:25.987Z,11.32
2022-11-07T10:57:20.793Z,9.48
2022-11-07T10:59:55.358Z,8.82
2022-11-07T11:02:28.507Z,8.90
2022-11-07T11:04:57.525Z,9.80
2022-11-07T11:07:28.559Z,9.13
2022-11-07T11:09:57.696Z,8.35
2022-11-07T11:12:34.510Z,8.23
2022-11-07T11:15:11.972Z,8.35
2022-11-07T11:17:39.558Z,8.63
2022-11-07T11:20:19.570Z,7.60
2022-11-07T11:22:46.677Z,8.75
2022-11-07T11:25:20.901Z,10.75
2022-11-07T11:27:55.575Z,9.00
2022-11-07T11:30:22.485Z,8.50
2022-11-07T11:32:58.428Z,9.75
2022-11-07T11:35:40.398Z,8.38
2022-11-07T11:38:28.500Z,8.40
2022-11-07T11:41:06.224Z,7.75
2022-11-07T11:44:00.802Z,7.70
2022-11-07T11:46:33.598Z,7.97
2022-11-07T11:49:08.528Z,11.68
2022-11-07T11:51:50.169Z,5.85
2022-11-07T11:54:17.359Z,5.90
2022-11-07T11:56:52.300Z,6.65
2022-11-07T11:59:40.672Z,6.90
2022-11-07T12:02:47.542Z,5.45
2022-11-07T12:05:23.989Z,6.40
2022-11-07T12:07:55.736Z,6.75
2022-11-07T12:10:30.255Z,6.25
2022-11-07T12:13:12.616Z,6.45
2022-11-07T12:16:13.046Z,5.90
2022-11-07T12:19:05.612Z,7.10
2022-11-07T12:21:34.630Z,6.10
2022-11-07T12:24:46.001Z,6.50
2022-11-07T12:27:26.594Z,5.90
2022-11-07T12:30:27.370Z,7.35
2022-11-07T12:33:01.289Z,7.03
2022-11-07T12:35:44.649Z,7.15
2022-11-07T12:38:36.688Z,11.65
2022-11-07T12:41:28.409Z,10.77
2022-11-07T12:44:15.520Z,11.15
2022-11-07T12:46:53.133Z,21.87
2022-11-07T12:49:38.972Z,6.65
2022-11-07T12:52:30.416Z,4.28
2022-11-07T12:54:57.459Z,4.25
2022-11-07T12:57:31.749Z,3.97
2022-11-07T13:00:07.987Z,4.68
2022-11-07T13:02:37.768Z,5.62
2022-11-07T13:05:21.228Z,4.70
2022-11-07T13:08:20.233Z,14.60
2022-11-07T13:10:47.235Z,4.87
2022-11-07T13:13:36.560Z,4.82
2022-11-07T13:16:22.184Z,4.12
2022-11-07T13:18:49.032Z,5.37
2022-11-07T13:21:18.453Z,6.22
2022-11-07T13:23:46.402Z,3.20
2022-11-07T13:26:45.110Z,4.30
2022-11-07T13:29:02.196Z,4.47
2022-11-07T13:31:33.283Z,4.32
2022-11-07T13:34:10.231Z,6.07
2022-11-07T13:36:37.176Z,3.87
2022-11-07T13:39:06.259Z,4.47
2022-11-07T13:41:34.816Z,4.55
2022-11-07T13:44:28.547Z,3.55
2022-11-07T13:46:57.205Z,3.53
2022-11-07T13:49:30.568Z,3.47
2022-11-07T13:52:08.988Z,3.12
2022-11-07T13:54:47.906Z,3.78
2022-11-07T13:57:15.950Z,3.10
2022-11-07T13:59:52.973Z,3.95
2022-11-07T14:02:20.426Z,3.70
2022-11-07T14:05:20.792Z,4.12
2022-11-07T14:07:58.092Z,3.37
2022-11-07T14:10:37.290Z,3.58
2022-11-07T14:13:07.409Z,3.03
2022-11-07T14:15:35.856Z,3.40
2022-11-07T14:18:03.457Z,4.03
2022-11-07T14:20:30.382Z,4.65
2022-11-07T14:23:00.664Z,4.12
2022-11-07T14:25:30.239Z,3.83
2022-11-07T14:27:57.746Z,3.90
2022-11-07T14:30:26.120Z,3.87
2022-11-07T14:32:57.900Z,3.42
2022-11-07T14:35:28.065Z,3.05
2022-11-07T14:37:56.905Z,3.45
2022-11-07T14:40:24.405Z,3.87
2022-11-07T14:42:51.830Z,3.30
2022-11-07T14:45:46.807Z,3.37
2022-11-07T14:48:12.132Z,3.20
2022-11-07T14:50:39.091Z,3.12
2022-11-07T14:53:09.353Z,3.92
2022-11-07T14:58:11.300Z,2.70
2022-11-07T15:00:38.806Z,3.00
2022-11-07T15:03:05.725Z,3.15
2022-11-07T15:05:38.386Z,3.60
2022-11-07T15:08:05.651Z,4.65
2022-11-07T15:10:35.475Z,4.82
2022-11-07T15:13:05.377Z,6.25
2022-11-07T15:15:36.419Z,8.27
2022-11-07T15:18:06.005Z,8.48
2022-11-07T15:20:36.760Z,8.73
2022-11-07T15:25:44.569Z,10.38
2022-11-07T15:28:17.986Z,8.48
2022-11-07T15:30:46.884Z,16.52
2022-11-07T15:33:14.287Z,15.30
2022-11-07T15:35:44.509Z,19.85
2022-11-07T15:38:17.505Z,17.70
2022-11-07T15:40:44.693Z,24.65
2022-11-07T15:43:11.676Z,17.50
2022-11-07T15:45:39.033Z,20.15
2022-11-07T15:48:07.302Z,15.90
2022-11-07T15:50:35.416Z,21.33
2022-11-07T15:53:02.535Z,35.63
2022-11-07T15:55:29.439Z,34.15
2022-11-07T15:57:56.336Z,31.73
2022-11-07T16:00:25.213Z,43.75
2022-11-07T16:02:52.514Z,58.03
2022-11-07T16:05:22.342Z,38.25
2022-11-07T16:07:49.284Z,48.50
2022-11-07T16:10:26.044Z,43.78
2022-11-07T16:12:53.753Z,32.25
2022-11-07T16:15:23.077Z,24.12
2022-11-07T16:17:52.967Z,21.75
2022-11-07T16:20:23.940Z,21.12
2022-11-07T16:25:24.477Z,21.20
2022-11-07T16:27:56.119Z,19.85
2022-11-07T16:30:23.243Z,22.23
2022-11-07T16:32:53.073Z,22.48
2022-11-07T16:35:23.024Z,22.97
2022-11-07T16:37:53.060Z,24.08
2022-11-07T16:40:22.854Z,24.33
2022-11-07T16:42:52.721Z,32.53
2022-11-07T16:45:22.315Z,35.75
2022-11-07T16:47:52.052Z,35.95
2022-11-07T16:50:22.320Z,34.72
2022-11-07T16:52:52.261Z,35.40
2022-11-07T16:55:22.183Z,30.85
2022-11-07T16:57:51.891Z,37.75
2022-11-07T17:00:23.497Z,33.65
2022-11-07T17:02:51.082Z,36.95
2022-11-07T17:05:20.287Z,40.40
2022-11-07T17:07:51.666Z,45.80
2022-11-07T17:10:22.766Z,38.80
2022-11-07T17:12:52.692Z,48.55
2022-11-07T17:15:23.073Z,45.30
2022-11-07T17:17:57.956Z,51.55
2022-11-07T17:20:49.978Z,45.67
2022-11-07T17:23:16.133Z,45.22
2022-11-07T17:25:47.781Z,45.12
2022-11-07T17:28:14.942Z,48.87
2022-11-07T17:30:42.165Z,46.20
2022-11-07T17:33:09.347Z,44.67
2022-11-07T17:35:37.084Z,49.13
2022-11-07T17:38:04.126Z,49.28
2022-11-07T17:40:33.059Z,56.47
2022-11-07T17:43:00.507Z,55.35
2022-11-07T17:45:27.775Z,57.00
2022-11-07T17:47:54.962Z,57.65
2022-11-07T17:50:24.687Z,60.63
2022-11-07T17:52:54.600Z,58.87
2022-11-07T17:55:24.968Z,64.65
2022-11-07T17:57:51.923Z,59.28
2022-11-07T18:00:24.546Z,75.72
2022-11-07T18:02:54.635Z,74.70
2022-11-07T18:05:31.811Z,78.05
2022-11-07T18:08:00.993Z,96.30
2022-11-07T18:10:27.924Z,78.68
2022-11-07T18:12:56.960Z,77.43
2022-11-07T18:15:24.163Z,73.05
2022-11-07T18:17:54.079Z,64.50
2022-11-07T18:20:23.826Z,60.03
2022-11-07T18:22:50.940Z,61.17
2022-11-07T18:25:19.314Z,64.55
2022-11-07T18:27:46.168Z,63.70
2022-11-07T18:30:13.717Z,67.05
2022-11-07T18:32:40.745Z,69.43
2022-11-07T18:35:07.700Z,67.18
2022-11-07T18:37:34.814Z,63.63
2022-11-07T18:40:01.742Z,68.00
2022-11-07T18:42:29.305Z,68.40
2022-11-07T18:44:56.487Z,86.95
2022-11-07T18:47:23.417Z,76.78
2022-11-07T18:49:55.623Z,69.82
2022-11-07T18:52:24.180Z,68.50
2022-11-07T18:54:51.500Z,62.13
2022-11-07T18:57:18.375Z,60.90
2022-11-07T18:59:46.186Z,59.53
2022-11-07T19:02:13.913Z,59.85
2022-11-07T19:04:41.177Z,59.00
2022-11-07T19:07:08.287Z,59.70
2022-11-07T19:09:35.825Z,58.38
2022-11-07T19:12:02.945Z,53.60
2022-11-07T19:14:30.737Z,53.20
2022-11-07T19:16:57.958Z,50.30
2022-11-07T19:19:24.831Z,51.03
2022-11-07T19:21:52.017Z,49.88
2022-11-07T19:24:18.984Z,52.00
2022-11-07T19:26:45.889Z,47.38
2022-11-07T19:29:13.026Z,44.45
2022-11-07T19:31:40.029Z,46.35
2022-11-07T19:34:06.991Z,48.05
2022-11-07T19:36:35.320Z,47.62
2022-11-07T19:39:03.049Z,46.35
2022-11-07T19:41:29.955Z,49.55
2022-11-07T19:43:59.171Z,51.03
2022-11-07T19:46:26.048Z,58.30
2022-11-07T19:48:55.256Z,60.42
2022-11-07T19:51:23.226Z,65.12
2022-11-07T19:53:58.379Z,59.83
2022-11-07T19:56:27.931Z,60.17
2022-11-07T19:58:54.850Z,60.00
2022-11-07T20:01:24.728Z,66.15
2022-11-07T20:03:52.558Z,59.50
2022-11-07T20:06:26.210Z,61.53
2022-11-07T20:08:53.461Z,62.03
2022-11-07T20:11:22.445Z,57.92
2022-11-07T20:13:49.437Z,57.30
2022-11-07T20:16:17.081Z,55.55
2022-11-07T20:18:44.197Z,56.55
2022-11-07T20:21:14.428Z,66.20
2022-11-07T20:23:43.180Z,66.90
2022-11-07T20:26:18.769Z,65.40
2022-11-07T20:28:46.928Z,65.65
2022-11-07T20:31:15.431Z,67.15
2022-11-07T20:33:42.904Z,70.28
2022-11-07T20:36:12.984Z,72.28
2022-11-07T20:38:40.982Z,71.97
2022-11-07T20:41:08.131Z,66.32
2022-11-07T20:43:35.315Z,68.28
2022-11-07T20:46:06.777Z,65.70
2022-11-07T20:48:34.417Z,66.85
2022-11-07T20:51:13.220Z,66.28
2022-11-07T20:53:42.381Z,62.72
2022-11-07T20:56:12.931Z,64.03
2022-11-07T20:58:41.640Z,64.35
2022-11-07T21:01:12.642Z,67.20
2022-11-07T21:03:39.994Z,65.80
2022-11-07T21:06:11.287Z,64.55
2022-11-07T21:08:39.134Z,67.68
2022-11-07T21:11:06.296Z,68.70
2022-11-07T21:13:34.341Z,70.68
2022-11-07T21:16:01.574Z,65.97
2022-11-07T21:18:28.676Z,61.33
2022-11-07T21:21:04.082Z,62.20
2022-11-07T21:23:31.173Z,61.67
2022-11-07T21:25:58.514Z,59.42
2022-11-07T21:28:26.344Z,58.45
2022-11-07T21:31:01.230Z,58.92
2022-11-07T21:33:28.348Z,54.47
2022-11-07T21:35:55.463Z,52.08
2022-11-07T21:38:25.337Z,46.55
2022-11-07T21:40:52.948Z,39.73
2022-11-07T21:43:20.576Z,40.10
2022-11-07T21:45:47.448Z,45.22
2022-11-07T21:48:16.562Z,45.35
2022-11-07T21:50:45.257Z,41.33
2022-11-07T21:53:12.516Z,41.92
2022-11-07T21:55:39.358Z,41.40
2022-11-07T21:58:06.437Z,40.22
2022-11-07T22:00:36.471Z,41.20
2022-11-07T22:03:04.919Z,42.45
2022-11-07T22:05:31.780Z,43.45
2022-11-07T22:07:58.645Z,45.63
2022-11-07T22:10:25.785Z,46.85
2022-11-07T22:12:55.811Z,47.95
2022-11-07T22:15:25.678Z,47.47
2022-11-07T22:17:55.676Z,52.45
2022-11-07T22:20:25.330Z,47.67
2022-11-07T22:22:52.430Z,43.40
2022-11-07T22:25:19.265Z,41.42
2022-11-07T22:27:46.110Z,42.70
2022-11-07T22:30:13.369Z,40.45
2022-11-07T22:32:40.213Z,40.25
2022-11-07T22:35:09.344Z,39.90
2022-11-07T22:37:36.634Z,35.50
2022-11-07T22:40:03.594Z,34.92
2022-11-07T22:42:30.448Z,35.75
2022-11-07T22:44:57.537Z,33.10
2022-11-07T22:47:24.404Z,36.95
2022-11-07T22:49:51.227Z,33.13
2022-11-07T22:52:18.338Z,33.00
2022-11-07T22:54:45.181Z,33.50
2022-11-07T22:57:16.695Z,32.97
2022-11-07T22:59:44.862Z,31.70
2022-11-07T23:02:11.848Z,31.85
2022-11-07T23:04:38.773Z,30.73
2022-11-07T23:07:05.997Z,32.92
2022-11-07T23:09:32.837Z,31.95
2022-11-07T23:12:00.507Z,31.87
2022-11-07T23:14:27.652Z,33.83
2022-11-07T23:16:57.613Z,33.17
2022-11-07T23:19:25.814Z,33.60
2022-11-07T23:21:54.790Z,32.88
2022-11-07T23:24:21.704Z,35.85
2022-11-07T23:26:48.943Z,34.50
2022-11-07T23:29:18.977Z,34.08
2022-11-07T23:31:47.540Z,31.05
2022-11-07T23:34:14.862Z,32.83
2022-11-07T23:36:44.320Z,32.08
2022-11-07T23:39:16.598Z,35.72
2022-11-07T23:41:44.390Z,31.27
2022-11-07T23:44:11.729Z,34.15
2022-11-07T23:46:57.228Z,32.40
2022-11-07T23:49:42.904Z,34.65
2022-11-07T23:52:09.744Z,33.35
2022-11-07T23:54:55.501Z,34.30
2022-11-07T23:57:22.341Z,33.70
